Time;durP1;ratioP1;P1;durP2;ratioP2;P2;SDS_P1;SDS_P2;PMS_P1;PMS_P2;Temp;Humidity;BMP_temperature;BMP_pressure;BME280_temperature;BME280_humidity;BME280_pressure;Samples;Min_cycle;Max_cycle;Signal;HPM_P1;HPM_P2
2023/01/30 00:01:06;;;;;;;30.73;21.48;;;6.30;99.90;;;;;;5008622;28;20042;-66
2023/01/30 00:03:31;;;;;;;31.17;22.17;;;6.30;99.90;;;;;;4992344;28;20092;-65
2023/01/30 00:05:57;;;;;;;28.90;22.20;;;6.40;99.90;;;;;;5009818;28;20133;-65
2023/01/30 00:08:23;;;;;;;26.80;20.27;;;6.40;99.90;;;;;;5009565;28;20441;-65
2023/01/30 00:10:49;;;;;;;31.33;21.13;;;6.40;99.90;;;;;;4991860;28;20050;-65
2023/01/30 00:13:15;;;;;;;31.08;20.80;;;6.40;99.90;;;;;;5009612;28;20029;-65
2023/01/30 00:15:41;;;;;;;25.73;20.83;;;6.40;99.90;;;;;;5009257;28;20144;-65
2023/01/30 00:18:07;;;;;;;31.77;21.70;;;6.40;99.90;;;;;;4990885;28;20108;-65
2023/01/30 00:20:33;;;;;;;29.10;21.15;;;6.50;99.90;;;;;;4990601;28;20525;-65
2023/01/30 00:22:58;;;;;;;28.50;20.13;;;6.50;99.90;;;;;;5009899;28;20121;-66
2023/01/30 00:25:25;;;;;;;30.52;20.67;;;6.50;99.90;;;;;;5009302;28;20088;-66
2023/01/30 00:27:51;;;;;;;26.60;19.80;;;6.50;99.90;;;;;;5010021;28;20030;-65
2023/01/30 00:30:17;;;;;;;29.63;20.02;;;6.60;99.90;;;;;;5008145;28;20406;-65
2023/01/30 00:32:45;;;;;;;27.92;20.58;;;6.60;99.90;;;;;;5009642;28;20053;-65
2023/01/30 00:35:11;;;;;;;26.05;19.02;;;6.50;99.90;;;;;;5008695;28;20037;-65
2023/01/30 00:37:37;;;;;;;27.25;19.45;;;6.60;99.90;;;;;;5007698;28;20040;-66
2023/01/30 00:40:03;;;;;;;27.75;18.67;;;6.60;99.90;;;;;;5009625;28;20680;-65
2023/01/30 00:47:58;;;;;;;24.83;18.25;;;6.60;99.90;;;;;;5007270;28;20053;-65
2023/01/30 00:50:24;;;;;;;24.40;18.25;;;6.60;99.90;;;;;;5008003;28;20141;-65
2023/01/30 00:52:50;;;;;;;24.25;18.45;;;6.60;99.90;;;;;;4991510;28;20625;-66
2023/01/30 00:55:16;;;;;;;28.13;18.13;;;6.60;99.90;;;;;;4989762;28;20049;-65
2023/01/30 00:57:43;;;;;;;25.60;17.95;;;6.60;99.90;;;;;;5009554;28;20045;-66
2023/01/30 01:00:10;;;;;;;21.75;15.50;;;6.70;99.90;;;;;;4990303;28;20057;-65
2023/01/30 01:02:35;;;;;;;22.88;15.38;;;6.70;99.90;;;;;;5006856;28;20060;-65
2023/01/30 01:05:01;;;;;;;23.60;15.10;;;6.70;99.90;;;;;;5007836;28;20427;-65
2023/01/30 01:07:27;;;;;;;19.40;14.40;;;6.70;99.90;;;;;;5004240;28;20049;-65
2023/01/30 01:09:52;;;;;;;18.10;13.23;;;6.70;99.90;;;;;;4990115;28;20158;-66
2023/01/30 01:12:18;;;;;;;20.80;13.40;;;6.70;99.90;;;;;;5005707;28;20156;-65
2023/01/30 01:14:44;;;;;;;22.45;12.10;;;6.80;99.90;;;;;;4988468;28;20073;-64
2023/01/30 01:17:10;;;;;;;16.63;10.50;;;6.80;99.90;;;;;;4991395;28;20058;-65
2023/01/30 01:19:35;;;;;;;17.33;10.27;;;6.70;99.90;;;;;;5007307;28;20072;-66
2023/01/30 01:22:01;;;;;;;16.67;9.20;;;6.80;99.90;;;;;;4993011;28;20045;-65
2023/01/30 01:24:27;;;;;;;13.55;8.63;;;6.80;99.90;;;;;;5009266;28;20045;-67
2023/01/30 01:26:52;;;;;;;16.77;7.95;;;6.80;99.90;;;;;;4992457;28;20439;-66
2023/01/30 01:29:18;;;;;;;15.75;8.23;;;6.80;99.90;;;;;;5009065;28;20595;-66
2023/01/30 01:31:45;;;;;;;18.90;8.43;;;6.80;99.90;;;;;;4972896;28;20130;-67
2023/01/30 01:34:11;;;;;;;16.35;8.18;;;6.80;99.90;;;;;;4983142;28;20137;-66
2023/01/30 01:36:37;;;;;;;16.70;7.80;;;6.80;99.90;;;;;;4955736;28;20037;-66
2023/01/30 01:39:03;;;;;;;17.42;8.10;;;6.80;99.90;;;;;;4986582;28;20085;-67
2023/01/30 01:41:29;;;;;;;12.40;6.93;;;6.80;99.90;;;;;;4972852;28;20046;-67
2023/01/30 01:44:08;;;;;;;13.02;7.00;;;6.80;99.90;;;;;;4972335;28;20074;-68
2023/01/30 01:46:51;;;;;;;11.85;7.55;;;6.80;99.90;;;;;;4970472;28;20482;-67
2023/01/30 01:49:25;;;;;;;13.52;6.47;;;6.80;99.90;;;;;;4971184;28;20181;-67
2023/01/30 01:51:57;;;;;;;19.33;7.18;;;6.80;99.90;;;;;;4970065;28;20479;-68
2023/01/30 01:54:33;;;;;;;12.93;5.97;;;6.70;99.90;;;;;;4986489;28;20042;-68
2023/01/30 01:57:03;;;;;;;7.80;5.60;;;6.70;99.90;;;;;;4975428;28;20406;-68
2023/01/30 01:59:37;;;;;;;10.40;5.22;;;6.70;99.90;;;;;;4971864;28;20054;-68
2023/01/30 02:02:09;;;;;;;13.60;5.22;;;6.70;99.90;;;;;;4972364;28;20049;-71
2023/01/30 02:07:23;;;;;;;11.57;4.97;;;6.70;99.90;;;;;;4972750;28;20077;-71
2023/01/30 02:09:50;;;;;;;12.77;5.20;;;6.70;99.90;;;;;;4979536;28;20042;-71
2023/01/30 02:12:16;;;;;;;11.57;5.05;;;6.70;99.90;;;;;;4992575;28;20069;-72
2023/01/30 02:14:43;;;;;;;13.73;4.10;;;6.70;99.90;;;;;;4974952;28;20070;-72
2023/01/30 02:17:08;;;;;;;7.00;4.18;;;6.70;99.90;;;;;;4954830;28;20030;-74
2023/01/30 02:19:56;;;;;;;9.70;4.28;;;6.80;99.90;;;;;;4974139;28;20053;-71
2023/01/30 02:22:28;;;;;;;13.50;4.40;;;6.70;99.90;;;;;;4976142;28;20356;-72
2023/01/30 02:25:41;;;;;;;8.45;3.92;;;6.70;99.90;;;;;;4960279;28;20537;-71
2023/01/30 02:28:39;;;;;;;9.95;4.30;;;6.80;99.90;;;;;;4923612;28;20089;-71
2023/01/30 02:31:16;;;;;;;12.27;4.75;;;6.70;99.90;;;;;;4995515;28;20053;-71
2023/01/30 02:34:12;;;;;;;7.28;2.83;;;6.70;99.90;;;;;;4991818;28;20072;-72
2023/01/30 02:36:56;;;;;;;8.85;3.92;;;6.70;99.90;;;;;;4973201;28;20524;-73
2023/01/30 02:39:28;;;;;;;11.27;3.88;;;6.70;99.90;;;;;;4989951;28;20061;-72
2023/01/30 02:42:18;;;;;;;9.65;3.95;;;6.70;99.90;;;;;;4985563;28;20493;-73
2023/01/30 02:45:25;;;;;;;11.80;4.10;;;6.70;99.90;;;;;;4993291;28;20056;-71
2023/01/30 02:47:51;;;;;;;12.10;4.22;;;6.70;99.90;;;;;;4991759;28;20417;-71
2023/01/30 02:50:24;;;;;;;16.73;4.53;;;6.70;99.90;;;;;;4994146;28;20121;-72
2023/01/30 02:52:51;;;;;;;13.93;4.72;;;6.80;99.90;;;;;;4992358;28;20045;-71
2023/01/30 02:55:22;;;;;;;12.25;4.70;;;6.70;99.90;;;;;;4993428;28;20394;-72
2023/01/30 02:57:48;;;;;;;19.55;4.38;;;6.80;99.90;;;;;;4994444;28;20053;-72
2023/01/30 03:00:19;;;;;;;18.73;4.43;;;6.70;99.90;;;;;;4994385;28;20038;-72
2023/01/30 03:03:12;;;;;;;14.95;3.92;;;6.80;99.90;;;;;;5009782;28;20042;-72
2023/01/30 03:05:44;;;;;;;21.30;4.97;;;6.80;99.90;;;;;;5006371;28;20521;-73
2023/01/30 03:08:28;;;;;;;16.65;5.20;;;6.80;99.90;;;;;;4994409;28;20096;-72
2023/01/30 03:11:08;;;;;;;16.27;4.63;;;6.80;99.90;;;;;;4994341;28;20144;-73
2023/01/30 03:13:55;;;;;;;18.58;5.00;;;6.90;99.90;;;;;;4994441;28;20152;-72
2023/01/30 03:16:38;;;;;;;18.20;4.50;;;6.80;99.90;;;;;;4988243;28;20034;-72
2023/01/30 03:19:08;;;;;;;14.77;5.28;;;6.90;99.90;;;;;;4991301;28;20034;-72
2023/01/30 03:21:40;;;;;;;17.48;4.57;;;6.90;99.90;;;;;;4995354;28;20116;-71
2023/01/30 03:24:06;;;;;;;11.30;4.10;;;6.90;99.90;;;;;;4987622;28;20403;-72
2023/01/30 03:26:36;;;;;;;18.73;4.75;;;6.90;99.90;;;;;;4998010;28;20640;-72
2023/01/30 03:29:03;;;;;;;16.58;4.28;;;6.90;99.90;;;;;;4999266;28;20049;-72
2023/01/30 03:31:29;;;;;;;17.58;4.30;;;6.90;99.90;;;;;;5000542;28;20120;-72
2023/01/30 03:33:54;;;;;;;19.13;4.63;;;6.90;99.90;;;;;;4989115;28;20065;-71
2023/01/30 03:36:20;;;;;;;19.08;4.60;;;6.90;99.90;;;;;;5003602;28;20042;-71
2023/01/30 03:38:46;;;;;;;15.63;4.60;;;6.90;99.90;;;;;;4992705;28;20041;-71
2023/01/30 03:41:11;;;;;;;14.40;4.55;;;7.00;99.90;;;;;;5005128;28;20128;-72
2023/01/30 03:43:37;;;;;;;18.02;3.75;;;6.90;99.90;;;;;;5022925;28;20038;-72
2023/01/30 03:46:03;;;;;;;19.17;3.92;;;6.90;99.90;;;;;;4989069;28;20042;-71
2023/01/30 03:48:29;;;;;;;16.00;4.70;;;6.90;99.90;;;;;;5000593;28;20084;-70
2023/01/30 03:50:55;;;;;;;16.50;3.17;;;6.90;99.90;;;;;;5019257;28;20089;-71
2023/01/30 03:53:21;;;;;;;21.50;3.80;;;6.90;99.90;;;;;;5001540;28;20137;-71
2023/01/30 03:55:46;;;;;;;20.55;3.50;;;6.90;99.90;;;;;;5002465;28;20505;-71
2023/01/30 03:58:12;;;;;;;16.05;4.70;;;7.00;99.90;;;;;;5001697;28;20176;-71
2023/01/30 04:00:38;;;;;;;18.45;4.88;;;6.90;99.90;;;;;;4997759;28;20038;-71
2023/01/30 04:03:03;;;;;;;18.45;4.07;;;6.90;99.90;;;;;;4997597;28;20041;-71
2023/01/30 04:05:29;;;;;;;19.42;4.55;;;6.90;99.90;;;;;;4998564;28;20061;-71
2023/01/30 04:07:56;;;;;;;17.45;4.53;;;6.90;99.90;;;;;;4989257;28;20698;-71
2023/01/30 04:10:22;;;;;;;16.27;3.58;;;6.90;99.90;;;;;;4994669;28;20072;-71
2023/01/30 04:12:48;;;;;;;17.50;4.00;;;6.90;99.90;;;;;;5000221;28;20041;-71
2023/01/30 04:15:14;;;;;;;19.60;4.40;;;6.90;99.90;;;;;;4997849;28;20030;-70
2023/01/30 04:17:42;;;;;;;22.55;4.43;;;6.90;99.90;;;;;;4981162;28;20260;-70
2023/01/30 04:20:08;;;;;;;19.35;4.00;;;6.90;99.90;;;;;;4996765;28;20123;-71
2023/01/30 04:22:34;;;;;;;25.23;4.60;;;6.90;99.90;;;;;;5016285;28;20045;-71
2023/01/30 04:25:00;;;;;;;19.08;4.00;;;6.90;99.90;;;;;;4998016;28;20049;-71
2023/01/30 04:27:26;;;;;;;23.00;4.05;;;6.90;99.90;;;;;;4983686;28;20041;-71
2023/01/30 04:29:52;;;;;;;18.52;3.97;;;6.80;99.90;;;;;;5016114;28;20045;-70
2023/01/30 04:32:17;;;;;;;14.23;3.97;;;6.80;99.90;;;;;;5015911;28;20053;-70
2023/01/30 04:34:44;;;;;;;16.17;3.92;;;6.80;99.90;;;;;;4998077;28;20463;-69
2023/01/30 04:37:10;;;;;;;15.55;3.15;;;6.70;99.90;;;;;;4999793;28;20065;-70
2023/01/30 04:39:36;;;;;;;20.23;3.83;;;6.70;99.90;;;;;;4997525;28;20390;-70
2023/01/30 04:42:02;;;;;;;17.85;3.47;;;6.60;99.90;;;;;;4997420;28;20112;-70
2023/01/30 04:44:28;;;;;;;15.93;3.58;;;6.60;99.90;;;;;;5012990;28;20455;-70
2023/01/30 04:46:54;;;;;;;19.55;3.88;;;6.60;99.90;;;;;;4997950;28;20033;-70
2023/01/30 04:49:20;;;;;;;17.25;3.50;;;6.60;99.90;;;;;;4992410;28;20046;-70
2023/01/30 04:51:45;;;;;;;21.27;4.72;;;6.50;99.90;;;;;;4994542;28;20045;-69
2023/01/30 04:54:11;;;;;;;25.38;4.28;;;6.50;99.90;;;;;;5012414;28;20045;-71
2023/01/30 04:56:37;;;;;;;16.20;3.60;;;6.50;99.90;;;;;;4995545;28;20045;-70
2023/01/30 04:59:03;;;;;;;21.45;3.70;;;6.50;99.90;;;;;;4996149;28;20054;-70
2023/01/30 05:01:31;;;;;;;21.25;4.10;;;6.50;99.90;;;;;;4992578;28;20390;-69
2023/01/30 05:03:57;;;;;;;16.98;4.00;;;6.50;99.90;;;;;;4991979;28;20056;-70
2023/01/30 05:06:23;;;;;;;27.63;4.43;;;6.40;99.90;;;;;;4995765;28;20105;-70
2023/01/30 05:08:53;;;;;;;16.92;3.15;;;6.40;99.90;;;;;;5012432;28;20041;-70
2023/01/30 05:11:19;;;;;;;21.15;4.75;;;6.30;99.90;;;;;;4994498;28;20073;-70
2023/01/30 05:13:46;;;;;;;18.52;4.18;;;6.20;99.90;;;;;;5012187;28;20066;-70
2023/01/30 05:16:13;;;;;;;22.50;4.05;;;6.20;99.90;;;;;;4994695;28;20038;-69
2023/01/30 05:18:38;;;;;;;24.00;4.00;;;6.20;99.90;;;;;;4993949;28;20108;-69
2023/01/30 05:21:13;;;;;;;14.50;3.35;;;6.10;99.90;;;;;;4986132;28;20033;-69
2023/01/30 05:23:39;;;;;;;18.20;3.92;;;6.10;99.90;;;;;;5011740;28;20045;-69
2023/01/30 05:26:05;;;;;;;19.67;3.92;;;6.00;99.90;;;;;;4992192;28;20048;-69
2023/01/30 05:28:31;;;;;;;22.33;3.40;;;5.90;99.90;;;;;;4990926;28;20065;-70
2023/01/30 05:31:12;;;;;;;17.50;3.22;;;5.90;99.90;;;;;;4994835;28;20062;-69
2023/01/30 05:33:38;;;;;;;21.45;3.42;;;5.80;99.90;;;;;;4994518;28;20065;-69
2023/01/30 05:36:05;;;;;;;16.98;3.20;;;5.80;99.90;;;;;;4980770;28;20052;-69
2023/01/30 05:38:31;;;;;;;18.17;3.63;;;5.80;99.90;;;;;;4998003;28;20494;-70
2023/01/30 05:41:01;;;;;;;26.90;3.83;;;5.80;99.90;;;;;;4998081;28;21458;-71
2023/01/30 05:43:28;;;;;;;27.35;4.13;;;5.70;99.90;;;;;;4997451;28;20069;-70
2023/01/30 05:45:55;;;;;;;21.42;3.05;;;5.70;99.90;;;;;;4998418;28;20053;-70
2023/01/30 05:48:22;;;;;;;20.88;3.92;;;5.70;99.90;;;;;;4997487;28;20046;-70
2023/01/30 05:50:52;;;;;;;23.45;3.35;;;5.60;99.90;;;;;;4998140;28;20540;-70
2023/01/30 05:53:18;;;;;;;27.38;4.55;;;5.50;99.90;;;;;;5013347;28;20486;-70
2023/01/30 05:55:44;;;;;;;27.52;4.13;;;5.50;99.90;;;;;;4977849;28;20041;-69
2023/01/30 05:58:11;;;;;;;18.20;3.53;;;5.40;99.90;;;;;;4994901;28;20152;-72
2023/01/30 06:00:37;;;;;;;25.42;3.95;;;5.40;99.90;;;;;;4995562;28;20629;-69
2023/01/30 06:03:03;;;;;;;27.98;3.70;;;5.30;99.90;;;;;;4995173;28;20046;-70
2023/01/30 06:05:28;;;;;;;20.63;3.38;;;5.40;99.90;;;;;;4997320;28;20046;-69
2023/01/30 06:07:54;;;;;;;23.73;3.47;;;5.30;99.90;;;;;;4992277;28;20125;-70
2023/01/30 06:10:20;;;;;;;23.50;3.70;;;5.20;99.90;;;;;;4997987;28;20038;-70
2023/01/30 06:12:45;;;;;;;21.77;4.03;;;5.30;99.90;;;;;;5013586;28;20038;-69
2023/01/30 06:15:11;;;;;;;20.48;3.42;;;5.20;99.90;;;;;;4996828;28;20116;-70
2023/01/30 06:17:42;;;;;;;22.70;4.20;;;5.20;99.90;;;;;;4995491;28;20129;-72
2023/01/30 06:20:08;;;;;;;19.45;3.90;;;5.20;99.90;;;;;;5012593;28;20073;-69
2023/01/30 06:22:34;;;;;;;21.98;3.38;;;5.20;99.90;;;;;;4993970;28;20038;-69
2023/01/30 06:25:00;;;;;;;16.17;3.30;;;5.20;99.90;;;;;;4996909;28;20040;-69
2023/01/30 06:27:25;;;;;;;22.42;3.75;;;5.20;99.90;;;;;;4996930;28;20048;-70
2023/01/30 06:29:51;;;;;;;31.63;5.05;;;5.20;99.90;;;;;;4996907;28;20067;-70
2023/01/30 06:32:17;;;;;;;27.30;4.32;;;5.20;99.90;;;;;;4996647;28;20068;-70
2023/01/30 06:34:42;;;;;;;28.73;4.22;;;5.20;99.90;;;;;;5014254;28;20076;-70
2023/01/30 06:37:08;;;;;;;24.67;4.10;;;5.30;99.90;;;;;;4979326;28;20092;-70
2023/01/30 06:39:34;;;;;;;17.17;2.75;;;5.40;99.90;;;;;;5011916;28;20041;-69
2023/01/30 06:41:59;;;;;;;22.65;3.97;;;5.50;99.90;;;;;;4991467;28;20033;-69
2023/01/30 06:44:25;;;;;;;23.23;3.65;;;5.60;99.90;;;;;;4996703;28;20139;-69
2023/01/30 06:46:51;;;;;;;21.05;3.20;;;5.60;99.90;;;;;;4995430;28;20042;-69
2023/01/30 06:49:17;;;;;;;20.00;3.30;;;5.60;99.90;;;;;;4976178;28;20450;-69
2023/01/30 06:51:43;;;;;;;29.45;4.28;;;5.60;99.90;;;;;;4991280;28;20045;-69
2023/01/30 06:54:09;;;;;;;25.95;4.28;;;5.70;99.90;;;;;;5012446;28;20056;-69
2023/01/30 06:56:34;;;;;;;20.88;3.65;;;5.70;99.90;;;;;;4993566;28;20030;-69
2023/01/30 06:59:00;;;;;;;24.27;3.03;;;5.60;99.90;;;;;;4993419;28;20497;-69
2023/01/30 07:01:26;;;;;;;23.60;3.90;;;5.60;99.90;;;;;;5011110;28;20037;-70
2023/01/30 07:03:51;;;;;;;26.00;4.68;;;5.50;99.90;;;;;;4989540;28;20053;-69
2023/01/30 07:06:17;;;;;;;28.27;4.10;;;5.50;99.90;;;;;;4994655;28;20040;-70
2023/01/30 07:08:43;;;;;;;24.13;4.68;;;5.40;99.90;;;;;;4978584;28;20548;-69
2023/01/30 07:11:09;;;;;;;21.73;3.25;;;5.40;99.90;;;;;;4995746;28;20100;-70
2023/01/30 07:13:35;;;;;;;23.90;4.20;;;5.40;99.90;;;;;;4996673;28;20045;-70
2023/01/30 07:16:01;;;;;;;25.08;4.20;;;5.30;99.90;;;;;;5013690;28;20464;-69
2023/01/30 07:18:27;;;;;;;25.20;4.28;;;5.30;99.90;;;;;;4996289;28;20076;-70
2023/01/30 07:20:52;;;;;;;26.35;4.50;;;5.40;99.90;;;;;;5012861;28;20041;-70
2023/01/30 07:23:18;;;;;;;21.95;3.83;;;5.30;99.90;;;;;;4995567;28;20120;-70
2023/01/30 07:25:44;;;;;;;25.50;3.85;;;5.40;99.90;;;;;;4994054;28;20064;-70
2023/01/30 07:28:10;;;;;;;27.35;5.20;;;5.40;99.90;;;;;;5010387;28;20050;-70
2023/01/30 07:30:35;;;;;;;25.38;4.50;;;5.40;99.90;;;;;;5013215;28;20077;-70
2023/01/30 07:33:03;;;;;;;24.17;4.65;;;5.40;99.90;;;;;;4995903;28;20049;-70
2023/01/30 07:35:31;;;;;;;25.48;3.53;;;5.50;99.90;;;;;;4997676;28;20103;-71
2023/01/30 07:37:57;;;;;;;27.30;4.30;;;5.50;99.90;;;;;;4995936;28;20052;-69
2023/01/30 07:40:23;;;;;;;26.27;4.18;;;5.50;99.90;;;;;;4996824;28;20079;-69
2023/01/30 07:43:00;;;;;;;23.77;3.58;;;5.50;99.90;;;;;;4997112;28;20053;-70
2023/01/30 07:45:41;;;;;;;21.50;3.95;;;5.60;99.90;;;;;;4997165;28;20034;-69
2023/01/30 07:48:09;;;;;;;23.30;3.85;;;5.60;99.90;;;;;;4996188;28;20049;-69
2023/01/30 07:50:35;;;;;;;23.05;4.18;;;5.60;99.90;;;;;;5013259;28;20501;-69
2023/01/30 07:53:05;;;;;;;22.58;3.83;;;5.60;99.90;;;;;;5009654;28;20099;-64
2023/01/30 07:55:32;;;;;;;23.80;4.22;;;5.70;99.90;;;;;;5008424;28;20042;-70
2023/01/30 07:57:57;;;;;;;21.63;3.88;;;5.80;99.90;;;;;;5012608;28;20533;-70
2023/01/30 08:00:23;;;;;;;30.23;5.00;;;5.80;99.90;;;;;;4997415;28;20123;-70
2023/01/30 08:02:49;;;;;;;25.05;3.45;;;5.80;99.90;;;;;;4995052;28;20041;-70
2023/01/30 08:05:15;;;;;;;24.08;3.95;;;5.80;99.90;;;;;;5014541;28;20044;-69
2023/01/30 08:07:41;;;;;;;25.23;3.97;;;5.90;99.90;;;;;;5014040;28;20073;-70
2023/01/30 08:10:07;;;;;;;23.35;3.65;;;5.90;99.90;;;;;;4997473;28;20053;-69
2023/01/30 08:12:33;;;;;;;22.58;3.72;;;5.90;99.90;;;;;;4996292;28;20115;-69
2023/01/30 08:14:59;;;;;;;32.42;4.65;;;5.90;99.90;;;;;;4995667;28;20046;-70
2023/01/30 08:17:24;;;;;;;29.10;4.97;;;5.90;99.90;;;;;;4993941;28;20470;-70
2023/01/30 08:19:50;;;;;;;25.10;4.18;;;6.00;99.90;;;;;;4995106;28;20057;-71
2023/01/30 08:22:16;;;;;;;25.48;3.65;;;6.00;99.90;;;;;;4995904;28;20275;-70
2023/01/30 08:24:41;;;;;;;33.55;5.28;;;6.00;99.90;;;;;;5012480;28;20125;-69
2023/01/30 08:27:07;;;;;;;26.10;4.40;;;6.10;99.90;;;;;;4994134;28;20034;-69
2023/01/30 08:29:33;;;;;;;27.42;4.53;;;6.00;99.90;;;;;;4993551;28;20069;-71
2023/01/30 08:32:00;;;;;;;20.23;3.80;;;6.10;99.90;;;;;;5011335;28;20050;-69
2023/01/30 08:34:26;;;;;;;20.80;4.00;;;6.10;99.90;;;;;;5011324;28;20056;-69
2023/01/30 08:36:51;;;;;;;28.48;4.32;;;6.10;99.90;;;;;;4994268;28;20029;-70
2023/01/30 08:39:17;;;;;;;30.48;4.30;;;6.10;99.90;;;;;;5010680;28;20096;-69
2023/01/30 08:41:43;;;;;;;23.80;3.85;;;6.10;99.90;;;;;;4993053;28;20644;-69
2023/01/30 08:44:09;;;;;;;25.30;4.95;;;6.20;99.90;;;;;;4992442;28;20049;-69
2023/01/30 08:46:36;;;;;;;25.77;4.32;;;6.20;99.90;;;;;;4991022;28;20046;-69
2023/01/30 08:49:02;;;;;;;27.20;4.35;;;6.20;99.90;;;;;;4992128;28;20046;-69
2023/01/30 08:51:28;;;;;;;24.65;4.05;;;6.20;99.90;;;;;;4992988;28;20037;-69
2023/01/30 08:53:54;;;;;;;32.05;5.32;;;6.20;99.90;;;;;;5007828;28;20066;-69
2023/01/30 08:56:20;;;;;;;23.00;3.20;;;6.30;99.90;;;;;;4987395;28;20521;-69
2023/01/30 08:58:47;;;;;;;25.67;4.65;;;6.20;99.90;;;;;;5011352;28;20041;-69
2023/01/30 09:01:14;;;;;;;28.85;4.50;;;6.30;99.90;;;;;;5012276;28;20111;-69
2023/01/30 09:03:40;;;;;;;26.20;4.68;;;6.30;99.90;;;;;;4986647;28;20044;-68
2023/01/30 09:06:06;;;;;;;26.60;4.70;;;6.30;99.90;;;;;;4991071;28;20149;-68
2023/01/30 09:08:31;;;;;;;24.77;4.72;;;6.30;99.90;;;;;;5009776;28;20053;-69
2023/01/30 09:11:01;;;;;;;26.63;4.25;;;6.40;99.90;;;;;;5013447;28;20403;-68
2023/01/30 09:13:27;;;;;;;25.60;4.65;;;6.40;99.90;;;;;;5014215;28;20045;-69
2023/01/30 09:15:52;;;;;;;25.33;4.43;;;6.50;99.90;;;;;;4994817;28;20042;-69
2023/01/30 09:18:18;;;;;;;22.15;4.18;;;6.70;99.90;;;;;;4996786;28;20554;-68
2023/01/30 09:20:44;;;;;;;19.38;3.78;;;7.00;99.90;;;;;;4978769;28;20044;-69
2023/01/30 09:23:10;;;;;;;22.27;3.78;;;7.30;99.90;;;;;;4989762;28;20696;-68
2023/01/30 09:25:36;;;;;;;27.27;4.78;;;7.40;99.90;;;;;;4994807;28;20045;-68
2023/01/30 09:28:02;;;;;;;32.67;4.50;;;7.40;99.90;;;;;;4996114;28;20397;-69
2023/01/30 09:30:28;;;;;;;20.60;4.50;;;7.30;99.90;;;;;;5015209;28;20073;-69
2023/01/30 09:32:53;;;;;;;27.98;4.03;;;7.20;99.90;;;;;;4995334;28;20084;-68
2023/01/30 09:35:19;;;;;;;23.33;3.85;;;7.10;99.90;;;;;;5012567;28;20442;-68
2023/01/30 09:37:50;;;;;;;24.30;4.07;;;7.00;99.90;;;;;;5012543;28;20390;-68
2023/01/30 09:40:22;;;;;;;22.00;4.28;;;7.20;99.90;;;;;;5013723;28;20034;-68
2023/01/30 09:42:51;;;;;;;26.70;4.53;;;7.80;99.90;;;;;;4990607;28;20041;-68
2023/01/30 09:45:22;;;;;;;24.13;4.68;;;8.40;99.90;;;;;;4994487;28;20128;-68
2023/01/30 09:48:15;;;;;;;24.27;4.78;;;8.60;99.90;;;;;;5011697;28;20467;-68
2023/01/30 09:51:37;;;;;;;21.55;4.03;;;8.60;99.90;;;;;;5012388;28;20041;-68
2023/01/30 09:54:16;;;;;;;29.00;4.75;;;8.40;99.90;;;;;;4950883;28;20090;-68
2023/01/30 09:56:42;;;;;;;23.27;4.68;;;8.10;99.90;;;;;;4991175;28;20198;-69
2023/01/30 09:59:28;;;;;;;30.52;5.18;;;7.80;99.90;;;;;;4991779;28;20065;-68
2023/01/30 10:02:34;;;;;;;26.98;4.35;;;7.60;99.90;;;;;;5009069;28;20049;-68
2023/01/30 10:05:02;;;;;;;24.45;4.88;;;7.50;99.90;;;;;;4998337;28;20127;-68
2023/01/30 10:07:54;;;;;;;24.52;4.30;;;7.50;99.90;;;;;;5012806;28;20030;-68
2023/01/30 10:10:35;;;;;;;23.75;4.03;;;7.40;99.90;;;;;;5010636;28;20042;-69
2023/01/30 10:13:38;;;;;;;22.58;4.13;;;7.50;99.90;;;;;;5011572;28;20045;-68
2023/01/30 10:16:10;;;;;;;24.52;4.32;;;7.50;99.90;;;;;;5013755;28;20042;-68
2023/01/30 10:18:53;;;;;;;22.10;4.22;;;7.60;99.90;;;;;;4989975;28;20061;-68
2023/01/30 10:21:35;;;;;;;24.48;4.85;;;7.90;99.90;;;;;;4991892;28;20049;-68
2023/01/30 10:24:22;;;;;;;29.13;4.72;;;8.10;99.90;;;;;;5009172;28;20045;-68
2023/01/30 10:26:48;;;;;;;24.13;5.03;;;8.70;99.90;;;;;;5010441;28;20127;-67
2023/01/30 10:29:20;;;;;;;23.45;3.75;;;9.00;99.90;;;;;;5011728;28;20037;-67
2023/01/30 10:31:53;;;;;;;28.77;5.70;;;8.70;99.90;;;;;;5012719;28;20081;-68
2023/01/30 10:34:24;;;;;;;24.75;4.32;;;8.40;99.90;;;;;;5009732;28;20041;-68
2023/01/30 10:37:09;;;;;;;30.33;4.28;;;8.20;99.90;;;;;;5013367;28;20643;-68
2023/01/30 10:39:43;;;;;;;31.87;5.07;;;8.10;99.90;;;;;;5010132;28;20044;-67
2023/01/30 10:42:13;;;;;;;;;;;8.00;99.90;;;;;;5009726;28;20467;-68
2023/01/30 10:44:42;;;;;;;24.52;4.25;;;8.00;99.90;;;;;;4994427;28;19960;-68
2023/01/30 10:47:20;;;;;;;23.83;4.15;;;7.90;99.90;;;;;;5012538;28;20084;-67
2023/01/30 10:49:51;;;;;;;23.83;4.03;;;7.90;99.90;;;;;;4993340;28;20065;-67
2023/01/30 10:52:25;;;;;;;23.52;4.03;;;7.90;99.90;;;;;;5009254;28;20101;-68
2023/01/30 10:55:00;;;;;;;23.30;5.25;;;7.80;99.90;;;;;;4994117;28;20057;-67
2023/01/30 10:57:35;;;;;;;;;;;7.70;99.90;;;;;;4995390;28;20056;-67
2023/01/30 11:00:12;;;;;;;27.50;4.90;;;7.70;99.90;;;;;;5009427;28;19921;-68
2023/01/30 11:02:57;;;;;;;28.33;5.30;;;7.70;99.90;;;;;;5008178;28;20691;-67
2023/01/30 11:05:47;;;;;;;23.27;5.67;;;7.90;99.90;;;;;;4992892;28;20070;-67
2023/01/30 11:08:26;;;;;;;28.75;4.82;;;8.00;99.90;;;;;;5011017;28;20117;-68
2023/01/30 11:10:53;;;;;;;22.20;4.25;;;8.10;99.90;;;;;;5011006;28;20454;-67
2023/01/30 11:13:25;;;;;;;26.17;4.88;;;8.10;99.90;;;;;;4993439;28;20390;-67
2023/01/30 11:15:53;;;;;;;21.77;4.38;;;8.10;99.90;;;;;;5012459;28;20042;-67
2023/01/30 11:18:21;;;;;;;25.35;4.38;;;8.00;99.90;;;;;;5011829;28;20149;-68
2023/01/30 11:21:01;;;;;;;19.48;3.95;;;7.90;99.90;;;;;;5012628;28;20077;-67
2023/01/30 11:23:33;;;;;;;22.25;4.80;;;7.90;99.90;;;;;;5010845;28;20038;-67
2023/01/30 11:26:01;;;;;;;20.55;3.03;;;8.00;99.90;;;;;;4988192;28;20109;-68
2023/01/30 11:28:26;;;;;;;17.55;3.35;;;7.90;99.90;;;;;;5011575;28;20057;-67
2023/01/30 11:30:59;;;;;;;21.85;3.65;;;7.90;99.90;;;;;;5011726;28;20038;-67
2023/01/30 11:33:33;;;;;;;21.48;3.92;;;8.00;99.90;;;;;;4991213;28;20145;-68
2023/01/30 11:35:59;;;;;;;;;;;8.00;99.90;;;;;;4992264;28;20460;-67
2023/01/30 11:38:37;;;;;;;15.10;3.47;;;8.00;99.90;;;;;;4991351;28;20099;-67
2023/01/30 11:41:09;;;;;;;16.38;3.33;;;8.10;99.90;;;;;;4991104;28;20038;-67
2023/01/30 11:43:38;;;;;;;20.17;3.13;;;8.10;99.90;;;;;;4991753;28;20382;-67
2023/01/30 11:46:07;;;;;;;18.13;3.40;;;8.20;99.90;;;;;;4990168;28;20038;-67
2023/01/30 11:48:41;;;;;;;23.00;3.72;;;8.30;99.90;;;;;;4991229;28;20038;-67
2023/01/30 11:51:09;;;;;;;21.20;3.90;;;8.40;99.90;;;;;;4990329;28;20045;-67
2023/01/30 11:53:45;;;;;;;17.95;3.15;;;8.30;99.90;;;;;;4990535;28;20545;-67
2023/01/30 11:56:19;;;;;;;19.42;4.03;;;8.10;99.90;;;;;;4991803;28;20959;-67
2023/01/30 11:59:10;;;;;;;16.92;3.28;;;7.80;99.90;;;;;;4991862;28;20078;-67
2023/01/30 12:01:36;;;;;;;17.52;2.85;;;7.60;99.90;;;;;;4986609;28;20054;-67
2023/01/30 12:04:08;;;;;;;17.38;3.67;;;7.30;99.90;;;;;;4990479;28;20045;-67
2023/01/30 12:06:37;;;;;;;14.43;2.55;;;7.10;99.90;;;;;;4992250;28;20056;-67
2023/01/30 12:09:03;;;;;;;14.15;2.33;;;7.00;99.90;;;;;;4991726;28;20061;-67
2023/01/30 12:11:44;;;;;;;11.02;2.17;;;6.90;99.90;;;;;;4989376;28;20475;-67
2023/01/30 12:14:23;;;;;;;13.70;2.38;;;6.90;99.90;;;;;;4990309;28;20449;-67
2023/01/30 12:16:54;;;;;;;13.63;2.25;;;6.80;99.90;;;;;;4988471;28;20035;-67
2023/01/30 12:19:41;;;;;;;7.05;1.27;;;6.80;99.90;;;;;;4989095;28;20074;-67
2023/01/30 12:22:21;;;;;;;11.23;1.98;;;6.70;99.90;;;;;;4989541;28;20046;-67
2023/01/30 12:25:22;;;;;;;15.05;1.70;;;6.70;99.90;;;;;;4989480;28;20148;-67
2023/01/30 12:28:13;;;;;;;9.68;1.55;;;6.70;99.90;;;;;;4987570;28;20065;-67
2023/01/30 12:30:47;;;;;;;12.07;1.88;;;6.90;99.90;;;;;;4986709;28;20046;-68
2023/01/30 12:33:15;;;;;;;13.38;2.33;;;7.00;99.90;;;;;;5003999;28;20054;-67
2023/01/30 12:35:54;;;;;;;14.07;2.78;;;7.20;99.90;;;;;;5008242;28;20104;-68
2023/01/30 12:38:29;;;;;;;17.38;3.25;;;7.40;99.90;;;;;;4990484;28;20045;-67
2023/01/30 12:41:06;;;;;;;17.10;2.75;;;7.50;99.90;;;;;;5008272;28;20045;-67
2023/01/30 12:43:38;;;;;;;17.67;3.08;;;7.60;99.90;;;;;;5007672;28;20052;-68
2023/01/30 12:46:41;;;;;;;10.70;2.15;;;7.60;99.90;;;;;;4993309;28;20559;-67
2023/01/30 12:49:24;;;;;;;15.30;2.78;;;7.60;99.90;;;;;;5009007;28;20037;-69
2023/01/30 12:51:56;;;;;;;14.63;2.22;;;7.60;99.90;;;;;;5009257;28;20057;-66
2023/01/30 12:55:06;;;;;;;11.75;2.53;;;7.60;99.90;;;;;;5003211;28;20045;-66
2023/01/30 12:57:42;;;;;;;21.13;2.60;;;7.60;99.90;;;;;;4984568;28;20119;-66
2023/01/30 13:00:31;;;;;;;16.05;2.53;;;7.60;99.90;;;;;;5010568;28;20049;-66
2023/01/30 13:03:33;;;;;;;20.95;2.88;;;7.50;99.90;;;;;;5003099;28;20056;-66
2023/01/30 13:06:17;;;;;;;11.00;2.90;;;7.50;99.90;;;;;;5008768;28;20100;-66
2023/01/30 13:09:01;;;;;;;13.88;2.83;;;7.50;99.90;;;;;;4990522;28;20513;-66
2023/01/30 13:11:50;;;;;;;15.80;2.33;;;7.60;99.90;;;;;;5010528;28;20034;-66
2023/01/30 13:14:43;;;;;;;13.07;2.45;;;7.60;99.90;;;;;;5004503;28;20042;-66